Nurnberg, Germany

5:11 PM CEST on September 17, 2014 (GMT +0200)
Nurnberg | Change Station
CLOSE
Current Station
Airport
Location: Nurnberg,
Elevation: 1043 ft
Nearby Weather Stations

Elev 1043 ft 49.50 °N, 11.05 °E | Updated 21 minutes ago

Partly Cloudy
Partly Cloudy
73 °F
Feels Like 73 °F
N
7
Wind Variable Wind from SE

Today
High -- | Low -- °F
--% Chance of Precip.
Yesterday
High -- | Low -- °F
Precip. -- in
6:54 AM 7:25 PM
Waning Crescent, 35% visible
Pressure 29.92 in
Visibility 6.2 miles
Clouds Few 4300 ft
Dew Point 59 °F
Humidity 61%
Rainfall 0.00 in
Snow Depth Not available.
UV 2 out of 12
Pollen Not available.
Air Quality Not available.
Flu Activity Not available.
METAR EDDN 171450Z 13006KT 080V160 9999 FEW043 23/15 Q1013 NOSIG

More Conditions Fewer Conditions

Pressure 29.92 in
Visibility 6.2 miles
Clouds Few 4300 ft
Dew Point 59 °F
Humidity 61%
Rainfall 0.00 in
Snow Depth Not available.
UV 2 out of 12
Pollen Not available.
Air Quality Not available.
Flu Activity Not available.
METAR EDDN 171450Z 13006KT 080V160 9999 FEW043 23/15 Q1013 NOSIG

More Conditions Fewer Conditions

10-Day Weather Forecast

Almanac

Astronomy

Sep. 17, 2014 Rise Set
Actual Time 6:54 AM CEST 7:25 PM CEST
Civil Twilight 6:22 AM CEST 7:57 PM CEST
Nautical Twilight 5:44 AM CEST 8:35 PM CEST
Astronomical Twilight 5:04 AM CEST 9:14 PM CEST
Moon 12:16 AM CEST 3:45 PM CEST
Length of Visible Light 13h 34m
Length of Day
12h 30m
Tomorrow will be 3m 38s shorter.
Waning Crescent, 35% of the Moon is Illuminated
Today
Waning Crescent
Sep 24
New
Oct 1
First Quarter
Oct 8
Full
Oct 15
Last Quarter

Today's Extremes

Country Highs Country Lows

Community

WunderPhotos

Upload Photos

1,754,067 photos uploaded!

WunderBlogs® & News

Nearby

Snow Depth

Not available.

Earthquake Activity

City Distance Mag. Time & Date
No recent earthquake activity has been reported nearby.
Minimum magnitude displayed is 2.5.

Coastal Water Temperatures

Place Temperature
No Stations Reporting

Nearby Weather Stations